Time;durP1;ratioP1;P1;durP2;ratioP2;P2;SDS_P1;SDS_P2;PMS_P1;PMS_P2;Temp;Humidity;BMP_temperature;BMP_pressure;BME280_temperature;BME280_humidity;BME280_pressure;Samples;Min_cycle;Max_cycle;Signal;HPM_P1;HPM_P2
2022/05/31 00:01:20;;;;;;;3.80;2.35;;;;;;;13.98;80.71;95631.80;1766068;81;21062;-66
2022/05/31 00:03:46;;;;;;;6.28;2.92;;;;;;;13.95;80.97;95639.86;1761543;81;21006;-66
2022/05/31 00:06:14;;;;;;;4.12;2.22;;;;;;;13.97;81.08;95634.52;1765983;81;21049;-66
2022/05/31 00:08:41;;;;;;;4.12;2.25;;;;;;;14.03;81.11;95635.64;1766314;81;20974;-64
2022/05/31 00:11:07;;;;;;;6.60;2.58;;;;;;;14.04;80.85;95631.63;1766465;81;21006;-64
2022/05/31 00:13:34;;;;;;;5.22;3.15;;;;;;;14.07;81.07;95634.17;1766467;81;21003;-64
2022/05/31 00:16:01;;;;;;;2.95;2.45;;;;;;;14.15;81.21;95640.56;1766118;81;21058;-64
2022/05/31 00:18:28;;;;;;;2.85;2.35;;;;;;;14.15;80.51;95638.38;1766118;81;21544;-64
2022/05/31 00:20:55;;;;;;;5.15;2.45;;;;;;;14.14;80.63;95638.84;1766187;81;21014;-64
2022/05/31 00:23:22;;;;;;;7.17;3.00;;;;;;;14.17;80.26;95636.08;1766151;81;21010;-64
2022/05/31 00:25:49;;;;;;;6.58;3.05;;;;;;;14.15;80.26;95643.68;1762522;81;21089;-64
2022/05/31 00:28:15;;;;;;;5.97;3.05;;;;;;;14.20;80.42;95639.09;1762601;81;21052;-65
2022/05/31 00:30:42;;;;;;;5.20;2.80;;;;;;;14.20;80.11;95632.45;1762595;81;21014;-64
2022/05/31 00:33:10;;;;;;;5.42;2.60;;;;;;;14.23;80.21;95636.33;1762321;81;20978;-64
2022/05/31 00:35:40;;;;;;;4.05;2.62;;;;;;;14.24;80.17;95637.62;1762362;81;21003;-64
2022/05/31 00:38:08;;;;;;;5.58;2.80;;;;;;;14.25;79.88;95638.48;1762509;81;21496;-64
2022/05/31 00:40:37;;;;;;;4.90;2.55;;;;;;;14.25;80.37;95644.66;1762349;81;20998;-64
2022/05/31 00:43:09;;;;;;;5.37;2.70;;;;;;;14.26;79.93;95631.81;1762583;81;21086;-64
2022/05/31 00:45:47;;;;;;;3.80;2.55;;;;;;;14.28;80.03;95642.36;1762700;81;21075;-64
2022/05/31 00:48:25;;;;;;;4.10;2.72;;;;;;;14.30;79.43;95637.88;1762404;81;20987;-64
2022/05/31 00:50:56;;;;;;;4.25;2.90;;;;;;;14.33;79.59;95632.92;1762584;81;21007;-64
2022/05/31 00:53:34;;;;;;;3.35;2.67;;;;;;;14.33;79.59;95632.92;1762224;81;21348;-64
2022/05/31 00:56:05;;;;;;;3.80;2.90;;;;;;;14.31;78.81;95636.08;1762630;81;21002;-64
2022/05/31 00:58:45;;;;;;;4.45;2.98;;;;;;;14.25;79.01;95639.81;1762509;81;21525;-64
2022/05/31 01:01:15;;;;;;;4.00;2.70;;;;;;;14.26;79.08;95642.43;1762378;81;20967;-64
2022/05/31 01:03:44;;;;;;;5.10;3.08;;;;;;;14.25;78.41;95638.02;1762595;81;21026;-64
2022/05/31 01:06:11;;;;;;;5.00;3.08;;;;;;;14.20;79.01;95629.34;1762351;81;21568;-64
2022/05/31 01:08:44;;;;;;;5.12;3.25;;;;;;;14.12;78.46;95624.75;1762522;81;20982;-65
2022/05/31 01:11:20;;;;;;;4.40;2.85;;;;;;;14.11;78.84;95631.41;1758727;81;21026;-65
2022/05/31 01:14:03;;;;;;;5.53;2.35;;;;;;;14.09;78.83;95631.95;1721444;83;21048;-65
2022/05/31 01:17:00;;;;;;;7.00;3.83;;;;;;;14.01;79.31;95638.80;1754158;81;21065;-65
2022/05/31 01:19:56;;;;;;;4.75;2.60;;;;;;;13.87;79.26;95641.89;1762360;81;21457;-64
2022/05/31 01:22:37;;;;;;;3.60;2.67;;;;;;;13.72;79.15;95641.89;1762137;81;21496;-64
2022/05/31 01:25:25;;;;;;;5.70;2.58;;;;;;;13.61;79.38;95638.70;1746297;81;21591;-64
2022/05/31 01:28:28;;;;;;;3.12;2.30;;;;;;;13.49;79.52;95632.44;1728487;81;20998;-64
2022/05/31 01:31:32;;;;;;;6.85;2.70;;;;;;;13.37;79.96;95645.58;1762578;81;21034;-64
2022/05/31 01:34:14;;;;;;;5.17;2.45;;;;;;;13.24;80.08;95642.84;1762601;81;21572;-66
2022/05/31 01:36:49;;;;;;;4.37;2.60;;;;;;;13.19;80.41;95641.18;1762001;81;21066;-66
2022/05/31 01:39:27;;;;;;;6.10;2.50;;;;;;;13.14;80.38;95642.23;1761630;81;21616;-66
2022/05/31 01:42:16;;;;;;;3.95;2.62;;;;;;;13.04;80.07;95646.91;1761482;81;21069;-67
2022/05/31 01:44:52;;;;;;;4.90;2.65;;;;;;;12.90;80.18;95648.62;1761960;81;21057;-67
2022/05/31 01:47:20;;;;;;;6.15;2.80;;;;;;;12.75;80.10;95652.53;1762492;81;21058;-67
2022/05/31 01:49:51;;;;;;;3.90;2.30;;;;;;;12.62;80.17;95657.70;1762355;81;21050;-67
2022/05/31 01:52:19;;;;;;;3.50;2.22;;;;;;;12.45;80.81;95660.80;1762353;81;21481;-67
2022/05/31 01:54:48;;;;;;;8.23;3.02;;;;;;;12.36;80.91;95663.66;1762302;81;21584;-67
2022/05/31 01:57:17;;;;;;;6.33;3.05;;;;;;;12.30;81.52;95665.16;1762444;81;21015;-66
2022/05/31 01:59:48;;;;;;;2.45;2.15;;;;;;;12.25;81.54;95667.90;1762558;81;21132;-66
2022/05/31 02:02:18;;;;;;;4.22;2.52;;;;;;;12.27;82.14;95667.84;1761201;81;21138;-66
2022/05/31 02:04:45;;;;;;;3.72;2.45;;;;;;;12.25;81.68;95678.94;1762443;81;21038;-66
2022/05/31 02:07:23;;;;;;;6.85;2.87;;;;;;;12.25;81.76;95686.42;1762205;81;21022;-66
2022/05/31 02:09:53;;;;;;;4.87;2.70;;;;;;;12.15;81.95;95688.00;1762652;81;20986;-66
2022/05/31 02:12:26;;;;;;;4.55;2.42;;;;;;;12.16;81.92;95699.85;1762089;81;21069;-66
2022/05/31 02:15:11;;;;;;;5.67;2.35;;;;;;;12.32;82.23;95703.00;1762694;81;21087;-66
2022/05/31 02:17:40;;;;;;;4.55;2.80;;;;;;;12.36;81.51;95707.78;1762054;81;20997;-66
2022/05/31 02:20:25;;;;;;;2.77;2.20;;;;;;;12.31;81.86;95711.86;1762693;81;21456;-66
2022/05/31 02:22:52;;;;;;;5.55;2.27;;;;;;;12.32;81.62;95703.00;1762449;81;21022;-66
2022/05/31 02:25:19;;;;;;;11.15;2.92;;;;;;;12.36;82.19;95707.78;1764548;81;21014;-67
2022/05/31 02:27:47;;;;;;;5.90;2.45;;;;;;;12.37;82.21;95714.80;1766557;81;21050;-67
2022/05/31 02:30:15;;;;;;;3.98;2.20;;;;;;;12.39;81.80;95699.77;1766091;81;21053;-66
2022/05/31 02:32:42;;;;;;;4.62;2.00;;;;;;;12.37;81.61;95700.25;1766117;81;21057;-67
2022/05/31 02:35:09;;;;;;;3.33;1.87;;;;;;;12.37;81.74;95700.25;1766509;81;21488;-66
2022/05/31 02:37:37;;;;;;;3.77;2.37;;;;;;;12.28;81.54;95700.89;1766384;81;20951;-66
2022/05/31 02:40:06;;;;;;;3.70;2.30;;;;;;;12.25;81.97;95706.72;1766237;81;21033;-66
2022/05/31 02:42:36;;;;;;;6.20;2.25;;;;;;;12.25;81.84;95710.23;1766502;81;20997;-66
2022/05/31 02:45:08;;;;;;;3.92;2.50;;;;;;;12.19;82.01;95705.52;1766508;81;21503;-66
2022/05/31 02:47:34;;;;;;;7.10;2.65;;;;;;;12.09;81.78;95703.53;1765965;81;21042;-66
2022/05/31 02:50:01;;;;;;;6.30;2.52;;;;;;;11.99;81.79;95704.65;1766448;81;21473;-66
2022/05/31 02:52:29;;;;;;;3.98;2.75;;;;;;;11.85;83.11;95708.44;1766258;81;20955;-66
2022/05/31 02:54:57;;;;;;;5.72;2.98;;;;;;;11.77;83.54;95709.06;1761582;81;21460;-66
2022/05/31 02:57:23;;;;;;;8.63;2.92;;;;;;;11.75;83.64;95717.48;1766469;81;21054;-66
2022/05/31 03:00:10;;;;;;;3.62;2.55;;;;;;;11.72;83.26;95720.19;1766211;81;21022;-65
2022/05/31 03:02:55;;;;;;;4.42;2.47;;;;;;;11.70;83.38;95720.21;1766426;81;21015;-64
2022/05/31 03:05:40;;;;;;;5.05;2.35;;;;;;;11.66;82.87;95734.38;1766065;81;21062;-65
2022/05/31 03:08:15;;;;;;;3.33;2.45;;;;;;;11.55;83.19;95731.56;1739037;81;21062;-65
2022/05/31 03:10:50;;;;;;;2.67;2.42;;;;;;;11.51;83.07;95725.45;1742129;81;21018;-64
2022/05/31 03:13:22;;;;;;;4.12;2.17;;;;;;;11.53;83.07;95716.18;1766248;81;20990;-64
2022/05/31 03:15:55;;;;;;;4.28;2.80;;;;;;;11.46;82.80;95714.09;1766632;81;21110;-64
2022/05/31 03:18:26;;;;;;;4.47;2.55;;;;;;;11.48;83.71;95708.34;1766497;81;21013;-64
2022/05/31 03:20:56;;;;;;;3.50;2.65;;;;;;;11.54;83.93;95709.55;1766426;81;21022;-64
2022/05/31 03:23:30;;;;;;;24.72;11.63;;;;;;;11.56;83.65;95721.39;1766382;81;20982;-64
2022/05/31 03:26:01;;;;;;;25.82;10.50;;;;;;;11.55;84.19;95713.06;1766341;81;21532;-64
2022/05/31 03:28:30;;;;;;;24.57;9.85;;;;;;;11.55;84.18;95710.42;1766282;81;21021;-64
2022/05/31 03:30:57;;;;;;;13.13;6.80;;;;;;;11.54;84.71;95709.55;1766308;81;21026;-64
2022/05/31 03:33:24;;;;;;;10.55;5.15;;;;;;;11.62;84.83;95722.61;1766374;81;21029;-64
2022/05/31 03:35:50;;;;;;;8.85;4.10;;;;;;;11.74;85.00;95726.75;1766220;81;21267;-64
2022/05/31 03:38:19;;;;;;;8.23;2.95;;;;;;;11.77;84.25;95721.39;1765488;81;21488;-66
2022/05/31 03:40:59;;;;;;;3.17;2.60;;;;;;;11.73;83.64;95724.56;1766078;81;21015;-66
2022/05/31 03:43:38;;;;;;;6.92;3.72;;;;;;;11.69;83.55;95725.09;1764240;81;21047;-66
2022/05/31 03:46:22;;;;;;;7.05;5.30;;;;;;;11.74;84.46;95734.22;1761995;81;21035;-67
2022/05/31 03:48:50;;;;;;;10.20;5.55;;;;;;;11.85;84.39;95736.20;1688974;81;21054;-67
2022/05/31 03:51:17;;;;;;;7.55;4.72;;;;;;;11.93;84.36;95737.85;1766294;81;21010;-67
2022/05/31 03:53:45;;;;;;;9.63;4.60;;;;;;;12.05;84.29;95737.59;1766461;81;21052;-67
2022/05/31 03:56:13;;;;;;;8.03;4.37;;;;;;;12.14;83.87;95737.36;1766316;81;20967;-66
2022/05/31 03:58:41;;;;;;;7.47;4.78;;;;;;;12.20;83.62;95742.53;1766251;81;21022;-66
2022/05/31 04:01:19;;;;;;;10.40;6.22;;;;;;;12.36;83.74;95754.09;1766506;81;21002;-66
2022/05/31 04:03:46;;;;;;;9.90;6.37;;;;;;;12.38;82.81;95751.83;1736325;81;21583;-66
2022/05/31 04:06:13;;;;;;;10.23;5.72;;;;;;;12.47;83.26;95758.66;1736471;81;20991;-66
2022/05/31 04:08:40;;;;;;;8.25;5.78;;;;;;;12.52;83.40;95756.35;1766202;81;21502;-66
2022/05/31 04:11:07;;;;;;;5.03;4.22;;;;;;;12.62;83.37;95756.11;1765837;81;21074;-66
2022/05/31 04:13:33;;;;;;;8.90;4.75;;;;;;;12.70;83.15;95747.52;1766574;81;21033;-66
2022/05/31 04:16:10;;;;;;;7.75;3.62;;;;;;;12.84;83.37;95745.41;1754204;81;21038;-67
2022/05/31 04:18:39;;;;;;;5.62;4.03;;;;;;;12.82;81.87;95747.22;1766097;81;21062;-67
2022/05/31 04:21:11;;;;;;;6.15;4.12;;;;;;;12.83;82.19;95751.62;1766357;81;21010;-68
2022/05/31 04:26:38;;;;;;;8.23;4.03;;;;;;;12.84;82.12;95756.00;1766190;81;21093;-68
2022/05/31 04:29:24;;;;;;;6.67;4.58;;;;;;;12.89;82.46;95759.41;1766405;81;21037;-68
2022/05/31 04:32:09;;;;;;;5.08;4.42;;;;;;;13.02;82.49;95758.64;1765959;81;20995;-68
2022/05/31 04:34:42;;;;;;;5.22;4.72;;;;;;;13.10;82.15;95755.37;1766417;81;21507;-68
2022/05/31 04:37:10;;;;;;;7.12;4.87;;;;;;;13.14;81.92;95760.98;1766142;81;21085;-68
2022/05/31 04:39:39;;;;;;;7.15;4.70;;;;;;;13.21;82.15;95753.75;1760924;81;21555;-68
2022/05/31 04:42:11;;;;;;;5.40;4.75;;;;;;;13.26;81.71;95753.17;1765931;81;21532;-68
2022/05/31 04:44:38;;;;;;;10.05;4.85;;;;;;;13.30;81.76;95752.66;1766100;81;21018;-67
2022/05/31 04:47:09;;;;;;;4.60;4.05;;;;;;;13.28;81.87;95759.77;1766209;81;21027;-68
2022/05/31 04:49:40;;;;;;;6.37;4.45;;;;;;;13.26;81.41;95764.23;1737132;81;21078;-68
2022/05/31 04:52:07;;;;;;;7.33;4.05;;;;;;;13.30;81.82;95759.28;1765980;81;20994;-67
2022/05/31 04:54:35;;;;;;;6.45;4.50;;;;;;;13.39;82.00;95759.91;1765997;81;20994;-68
2022/05/31 04:57:10;;;;;;;5.95;4.90;;;;;;;13.47;81.87;95756.19;1765898;81;21022;-68
2022/05/31 04:59:36;;;;;;;6.30;5.15;;;;;;;13.59;81.85;95761.16;1766265;81;21006;-68
2022/05/31 05:02:04;;;;;;;5.87;4.67;;;;;;;13.67;81.34;95763.59;1766024;81;21022;-68
2022/05/31 05:04:34;;;;;;;7.12;5.20;;;;;;;13.78;81.54;95762.81;1763848;81;21511;-68
2022/05/31 05:07:02;;;;;;;7.55;5.17;;;;;;;13.91;81.77;95775.27;1765835;81;21093;-68
2022/05/31 05:09:29;;;;;;;8.50;5.40;;;;;;;14.11;81.31;95769.39;1766373;81;20990;-68
2022/05/31 05:12:13;;;;;;;6.78;4.50;;;;;;;14.11;81.31;95769.39;1672068;86;21517;-69
2022/05/31 05:14:41;;;;;;;4.67;4.22;;;;;;;14.24;81.02;95771.65;1706588;83;21085;-68
2022/05/31 05:17:10;;;;;;;6.10;4.28;;;;;;;14.23;79.98;95773.87;1778698;81;21042;-68
2022/05/31 05:19:38;;;;;;;4.70;3.90;;;;;;;14.32;80.51;95771.87;1779158;81;21013;-67
2022/05/31 05:22:06;;;;;;;5.42;3.72;;;;;;;14.39;80.48;95758.80;1779928;81;21005;-67
2022/05/31 05:24:32;;;;;;;10.63;4.10;;;;;;;14.50;79.72;95772.16;1779724;80;21002;-67
2022/05/31 05:27:10;;;;;;;6.08;3.58;;;;;;;14.57;80.04;95770.23;1775644;81;21511;-67
2022/05/31 05:32:40;;;;;;;8.43;4.27;;;;;;;14.76;79.84;95775.81;1780158;80;20104;-67
2022/05/31 05:35:17;;;;;;;8.80;3.85;;;;;;;14.93;79.82;95774.81;1778888;81;20962;-67
2022/05/31 05:37:46;;;;;;;5.87;3.98;;;;;;;15.14;79.35;95771.03;1778579;81;21547;-68
2022/05/31 05:40:14;;;;;;;4.20;3.70;;;;;;;15.31;79.06;95775.31;1778891;81;22252;-67
2022/05/31 05:42:43;;;;;;;8.80;3.77;;;;;;;15.47;78.21;95770.36;1777957;81;21065;-68
2022/05/31 05:45:18;;;;;;;4.05;2.92;;;;;;;15.59;77.94;95775.69;1745751;81;21344;-69
2022/05/31 05:47:46;;;;;;;5.58;3.80;;;;;;;15.68;76.88;95780.69;1752231;81;21097;-70
2022/05/31 05:50:13;;;;;;;6.58;4.62;;;;;;;15.64;76.40;95780.38;1748180;82;21033;-67
2022/05/31 05:52:52;;;;;;;8.45;4.00;;;;;;;15.66;76.34;95777.20;1721533;82;21116;-66
2022/05/31 05:55:38;;;;;;;5.53;4.00;;;;;;;15.72;76.54;95779.70;1748350;82;21145;-66
2022/05/31 05:58:23;;;;;;;4.17;3.55;;;;;;;15.90;76.98;95775.94;1748486;82;21077;-65
2022/05/31 06:01:23;;;;;;;6.78;4.10;;;;;;;16.01;75.85;95774.63;1748943;82;21010;-66
2022/05/31 06:04:06;;;;;;;5.87;3.83;;;;;;;16.17;74.92;95776.72;1721757;82;21065;-66
2022/05/31 06:06:36;;;;;;;6.28;3.72;;;;;;;16.38;75.70;95774.58;1749060;82;21084;-66
2022/05/31 06:09:16;;;;;;;4.65;3.77;;;;;;;16.71;75.04;95775.99;1749135;82;21096;-65
2022/05/31 06:11:57;;;;;;;7.15;3.95;;;;;;;16.97;74.16;95770.97;1747435;82;21092;-65
2022/05/31 06:14:38;;;;;;;5.03;4.10;;;;;;;17.13;72.96;95770.72;1748484;82;21073;-65
2022/05/31 06:17:11;;;;;;;4.20;3.52;;;;;;;17.17;71.87;95768.81;1748388;82;21073;-66
2022/05/31 06:19:40;;;;;;;3.30;3.00;;;;;;;17.15;70.64;95773.34;1748518;82;21073;-66
2022/05/31 06:22:09;;;;;;;4.75;3.33;;;;;;;17.09;69.14;95766.00;1748656;82;21448;-66
2022/05/31 06:24:40;;;;;;;4.60;3.35;;;;;;;17.08;70.41;95768.71;1735198;82;21634;-66
2022/05/31 06:27:09;;;;;;;4.58;3.72;;;;;;;17.20;70.02;95776.20;1743355;82;21033;-66
2022/05/31 06:29:36;;;;;;;6.42;3.40;;;;;;;17.34;69.27;95770.75;1745537;82;21012;-66
2022/05/31 06:32:04;;;;;;;6.75;3.47;;;;;;;17.57;69.62;95771.13;1745251;81;21055;-66
2022/05/31 06:34:32;;;;;;;6.28;4.08;;;;;;;17.69;67.88;95773.27;1744099;82;21016;-66
2022/05/31 06:37:10;;;;;;;6.90;3.72;;;;;;;17.78;68.08;95774.66;1742076;82;21055;-66
2022/05/31 06:39:44;;;;;;;7.78;3.55;;;;;;;17.87;67.21;95782.30;1714569;82;21558;-66
2022/05/31 06:42:13;;;;;;;7.80;3.62;;;;;;;17.81;66.47;95778.07;1768173;80;20967;-66
2022/05/31 06:45:00;;;;;;;4.30;3.37;;;;;;;17.82;67.73;95770.48;1664620;84;21011;-65
2022/05/31 06:47:43;;;;;;;7.70;3.95;;;;;;;17.95;68.27;95773.47;1652423;86;21552;-66
2022/05/31 06:50:27;;;;;;;8.35;4.40;;;;;;;18.20;68.25;95775.05;1751113;80;21541;-66
2022/05/31 06:56:48;;;;;;;7.35;3.85;;;;;;;18.39;62.98;95779.91;1798971;80;21036;-66
2022/05/31 06:58:45;;;;;;;11.90;4.08;;;;;;;18.37;64.07;95776.47;1801119;78;21659;-67
2022/05/31 07:01:12;;;;;;;5.97;3.87;;;;;;;18.31;64.15;95772.25;1819934;78;21084;-66
2022/05/31 07:03:39;;;;;;;9.53;4.05;;;;;;;18.29;64.50;95776.80;1839907;78;20979;-66
2022/05/31 07:06:06;;;;;;;6.87;4.00;;;;;;;18.36;62.35;95773.38;1845215;77;21085;-66
2022/05/31 07:08:33;;;;;;;5.58;3.45;;;;;;;18.51;61.73;95775.81;1844796;77;21520;-66
2022/05/31 07:11:01;;;;;;;7.20;4.12;;;;;;;18.54;62.37;95778.33;1844916;77;21280;-66
2022/05/31 07:13:46;;;;;;;6.15;3.92;;;;;;;18.51;62.46;95781.16;1845320;77;21010;-66
2022/05/31 07:16:25;;;;;;;7.17;3.98;;;;;;;18.64;63.33;95778.30;1845606;77;21016;-66
2022/05/31 07:19:03;;;;;;;6.97;3.90;;;;;;;18.90;62.51;95773.09;1840241;78;21026;-66
2022/05/31 07:21:31;;;;;;;11.68;4.37;;;;;;;19.05;62.41;95775.48;1843666;78;22128;-66
2022/05/31 07:23:58;;;;;;;9.28;4.85;;;;;;;19.21;61.29;95778.26;1845315;77;20994;-66
2022/05/31 07:26:26;;;;;;;13.70;4.72;;;;;;;19.32;61.88;95765.67;1813659;78;20971;-66
2022/05/31 07:28:54;;;;;;;7.62;4.67;;;;;;;19.38;61.43;95763.57;1834333;78;20990;-66
2022/05/31 07:31:21;;;;;;;13.43;4.55;;;;;;;19.42;62.33;95762.92;1784392;80;20952;-66
2022/05/31 07:33:53;;;;;;;9.00;4.65;;;;;;;19.56;62.59;95768.45;1781859;80;21039;-66
2022/05/31 07:36:20;;;;;;;19.10;15.03;;;;;;;19.69;62.07;95771.39;1781511;80;21081;-66
2022/05/31 07:38:49;;;;;;;10.68;4.33;;;;;;;19.77;61.79;95765.64;1735116;81;21065;-66
2022/05/31 07:41:16;;;;;;;8.55;4.15;;;;;;;19.93;61.81;95765.69;1770313;81;21460;-66
2022/05/31 07:43:43;;;;;;;8.70;4.53;;;;;;;20.11;61.19;95766.08;1769930;81;21031;-67
2022/05/31 07:46:13;;;;;;;10.48;4.53;;;;;;;20.27;60.58;95766.11;1770530;81;20983;-66
2022/05/31 07:48:40;;;;;;;8.40;4.40;;;;;;;20.37;60.11;95767.82;1770013;81;20988;-66
2022/05/31 07:51:09;;;;;;;5.80;4.20;;;;;;;20.38;59.83;95770.39;1765149;81;22273;-67
2022/05/31 07:53:37;;;;;;;13.50;11.97;;;;;;;20.30;57.38;95760.58;1784637;79;21500;-67
2022/05/31 07:56:09;;;;;;;5.90;4.65;;;;;;;20.23;59.15;95762.71;1754653;79;21068;-66
2022/05/31 07:58:51;;;;;;;12.43;4.28;;;;;;;20.18;60.51;95764.77;1822027;79;21077;-66
2022/05/31 08:01:28;;;;;;;8.95;5.00;;;;;;;20.40;60.88;95762.28;1739918;82;21104;-66
2022/05/31 08:03:57;;;;;;;9.95;5.37;;;;;;;20.52;58.21;95762.48;1822025;79;21524;-66
2022/05/31 08:06:31;;;;;;;7.37;4.75;;;;;;;20.71;59.22;95754.77;1822160;79;21002;-70
2022/05/31 08:08:58;;;;;;;8.70;4.95;;;;;;;20.83;60.15;95755.42;1821538;79;21062;-68
2022/05/31 08:11:29;;;;;;;8.33;4.62;;;;;;;21.14;60.28;95753.22;1821341;79;21484;-68
2022/05/31 08:13:55;;;;;;;8.35;4.67;;;;;;;;;;1821920;79;21002;-66
2022/05/31 08:16:25;;;;;;;12.33;4.95;;;;;;;21.50;57.01;95749.36;1822125;79;21508;-71
2022/05/31 08:18:55;;;;;;;9.28;4.35;;;;;;;21.35;58.63;95743.52;1821890;79;21500;-74
2022/05/31 08:21:28;;;;;;;7.35;4.10;;;;;;;21.23;58.00;95753.63;1822066;79;21022;-73
2022/05/31 08:24:02;;;;;;;6.47;4.03;;;;;;;21.36;59.03;95749.27;1795372;79;21115;-75
2022/05/31 08:26:29;;;;;;;4.75;3.72;;;;;;;21.67;58.53;95750.16;1796159;80;21052;-71
2022/05/31 08:28:55;;;;;;;6.47;4.10;;;;;;;21.89;57.61;95751.94;1798277;80;21069;-69
2022/05/31 08:31:26;;;;;;;5.97;4.50;;;;;;;22.02;56.75;95751.59;1793842;80;21084;-69
2022/05/31 08:33:54;;;;;;;6.20;4.05;;;;;;;21.95;55.80;95741.31;1794732;80;21011;-68
2022/05/31 08:36:21;;;;;;;7.37;4.33;;;;;;;22.12;56.48;95749.17;1796716;80;21009;-69
2022/05/31 08:38:48;;;;;;;5.65;4.10;;;;;;;22.31;56.13;95748.08;1800137;80;21030;-67
2022/05/31 08:41:31;;;;;;;8.03;5.83;;;;;;;22.52;56.65;95745.86;1800487;80;21018;-70
2022/05/31 08:44:30;;;;;;;4.90;4.30;;;;;;;22.39;53.19;95745.77;1799805;80;20990;-68
2022/05/31 08:47:25;;;;;;;6.65;4.35;;;;;;;22.32;54.65;95741.25;1799868;80;21002;-67
2022/05/31 08:53:15;;;;;;;6.95;4.25;;;;;;;22.38;52.93;95754.33;1757811;80;20982;-69
2022/05/31 08:59:05;;;;;;;5.58;4.00;;;;;;;22.46;56.56;95749.80;1795617;80;21060;-67
2022/05/31 09:01:40;;;;;;;5.97;3.77;;;;;;;22.63;54.14;95751.44;1795064;80;21034;-66
2022/05/31 09:04:30;;;;;;;6.75;4.22;;;;;;;22.66;53.14;95745.84;1796959;80;21118;-65
2022/05/31 09:07:05;;;;;;;6.33;4.12;;;;;;;22.90;55.00;95752.80;1799639;80;21602;-66
2022/05/31 09:09:50;;;;;;;6.17;4.55;;;;;;;22.67;52.93;95748.42;1790975;80;21021;-66
2022/05/31 09:12:39;;;;;;;7.22;4.20;;;;;;;22.77;54.15;95745.16;1800787;80;21026;-66
2022/05/31 09:15:20;;;;;;;6.72;4.28;;;;;;;22.88;52.21;95737.23;1800554;80;21030;-66
2022/05/31 09:18:24;;;;;;;9.15;3.98;;;;;;;22.96;51.03;95741.66;1800895;80;20978;-66
2022/05/31 09:20:59;;;;;;;10.32;4.70;;;;;;;23.13;52.20;95747.29;1800919;80;21097;-66
2022/05/31 09:23:37;;;;;;;8.75;4.50;;;;;;;23.05;53.65;95747.80;1800911;80;20982;-65
2022/05/31 09:26:40;;;;;;;5.53;4.33;;;;;;;23.20;52.29;95748.61;1799658;80;21062;-65
2022/05/31 09:29:25;;;;;;;7.12;4.58;;;;;;;22.94;52.05;95748.10;1795580;80;21504;-66
2022/05/31 09:32:18;;;;;;;8.45;4.70;;;;;;;22.53;53.24;95756.53;1795513;80;20985;-66
2022/05/31 09:35:12;;;;;;;9.83;4.70;;;;;;;22.30;54.13;95753.06;1795359;80;20991;-66
2022/05/31 09:38:17;;;;;;;7.72;4.03;;;;;;;22.06;54.71;95757.63;1790352;80;21512;-66
2022/05/31 09:41:06;;;;;;;5.80;4.47;;;;;;;21.73;55.74;95765.92;1794400;80;21026;-66
2022/05/31 09:43:49;;;;;;;8.23;5.03;;;;;;;21.44;56.08;95772.52;1794281;80;21110;-66
2022/05/31 09:46:35;;;;;;;5.45;4.50;;;;;;;21.22;56.65;95772.00;1795092;80;21471;-66
2022/05/31 09:49:20;;;;;;;12.78;4.60;;;;;;;21.05;57.15;95773.00;1779402;80;21540;-65
2022/05/31 09:51:46;;;;;;;6.95;4.92;;;;;;;20.94;58.16;95775.81;1794982;80;21448;-66
2022/05/31 09:57:26;;;;;;;8.78;4.90;;;;;;;20.87;58.65;95786.50;1749427;80;21468;-65
2022/05/31 10:00:18;;;;;;;5.35;4.50;;;;;;;20.82;58.96;95787.72;1738377;80;21469;-66
2022/05/31 10:03:13;;;;;;;5.50;4.87;;;;;;;20.65;59.23;95792.18;1795370;80;20998;-66
2022/05/31 10:05:43;;;;;;;7.40;4.90;;;;;;;20.58;59.19;95795.28;1795485;80;21026;-66
2022/05/31 10:08:32;;;;;;;5.58;4.42;;;;;;;20.53;59.04;95788.80;1794984;80;20982;-66
2022/05/31 10:11:13;;;;;;;8.13;4.67;;;;;;;20.57;59.28;95789.06;1795366;80;20998;-66
2022/05/31 10:13:44;;;;;;;8.65;5.03;;;;;;;20.64;59.27;95790.47;1795393;80;21508;-66
2022/05/31 10:16:26;;;;;;;7.72;4.75;;;;;;;20.82;59.29;95788.58;1795124;80;20990;-66
2022/05/31 10:19:00;;;;;;;6.45;4.67;;;;;;;20.99;58.61;95783.61;1795267;80;21061;-66
2022/05/31 10:21:32;;;;;;;5.67;4.53;;;;;;;21.01;58.41;95779.48;1795278;80;20939;-66
2022/05/31 10:24:20;;;;;;;5.40;4.83;;;;;;;20.89;59.21;95788.63;1795135;80;20987;-66
2022/05/31 10:27:27;;;;;;;7.55;5.80;;;;;;;20.70;59.51;95784.75;1682999;84;21034;-65
2022/05/31 10:30:03;;;;;;;9.43;5.80;;;;;;;20.49;59.57;95781.89;1665647;86;21503;-66
2022/05/31 10:32:46;;;;;;;11.18;6.03;;;;;;;20.29;59.88;95779.81;1725671;81;21141;-66
2022/05/31 10:35:28;;;;;;;13.13;6.37;;;;;;;20.13;60.61;95788.27;1755990;82;21496;-66
2022/05/31 10:38:09;;;;;;;11.15;6.08;;;;;;;19.97;60.85;95786.02;1755643;82;21110;-65
2022/05/31 10:40:48;;;;;;;11.18;6.08;;;;;;;19.77;62.58;95781.23;1756058;81;21073;-66
2022/05/31 10:43:31;;;;;;;7.20;5.55;;;;;;;19.65;62.88;95782.72;1755759;82;21041;-66
2022/05/31 10:45:58;;;;;;;10.58;6.35;;;;;;;19.54;63.16;95785.06;1755973;81;21084;-66
2022/05/31 10:48:27;;;;;;;9.58;6.03;;;;;;;19.41;63.85;95784.81;1755969;81;21073;-66
2022/05/31 10:51:14;;;;;;;15.03;6.53;;;;;;;19.33;64.52;95789.69;1756059;82;20979;-66
2022/05/31 10:54:10;;;;;;;11.30;6.87;;;;;;;19.28;64.66;95787.72;1756168;81;21003;-66
2022/05/31 10:56:57;;;;;;;11.53;5.78;;;;;;;19.22;66.21;95790.20;1755819;81;21003;-65
2022/05/31 10:59:47;;;;;;;10.60;6.22;;;;;;;19.08;67.23;95794.05;1755856;82;21018;-65
2022/05/31 11:02:34;;;;;;;9.03;6.10;;;;;;;18.97;67.11;95797.70;1755660;81;21031;-65
2022/05/31 11:05:11;;;;;;;12.33;6.60;;;;;;;18.96;67.75;95801.33;1755708;82;21054;-65
2022/05/31 11:13:59;;;;;;;10.78;5.45;;;;;;;18.76;73.82;95800.94;1756003;82;21536;-65
2022/05/31 11:16:55;;;;;;;9.88;6.00;;;;;;;18.84;74.26;95802.77;1756038;81;21488;-65
2022/05/31 11:19:57;;;;;;;7.55;5.55;;;;;;;19.00;73.21;95787.73;1754947;82;21027;-65
2022/05/31 11:22:54;;;;;;;10.70;5.20;;;;;;;19.18;72.71;95789.13;1755844;82;21026;-65
2022/05/31 11:25:58;;;;;;;9.10;5.10;;;;;;;19.25;71.87;95787.84;1734873;82;21450;-66
2022/05/31 11:29:04;;;;;;;9.58;6.00;;;;;;;19.31;73.13;95784.88;1765273;81;21575;-66
2022/05/31 11:31:48;;;;;;;9.68;6.33;;;;;;;19.44;71.65;95786.47;1765912;81;21022;-66
2022/05/31 11:34:45;;;;;;;13.85;7.10;;;;;;;19.53;70.70;95781.11;1766417;81;21323;-66
2022/05/31 11:37:40;;;;;;;13.05;7.42;;;;;;;19.56;70.50;95780.50;1765548;81;21070;-65
2022/05/31 11:40:24;;;;;;;10.23;6.95;;;;;;;19.45;70.43;95781.05;1765265;81;21495;-66
2022/05/31 11:43:20;;;;;;;11.88;7.33;;;;;;;19.36;69.72;95787.34;1766341;81;21499;-65
2022/05/31 11:46:11;;;;;;;14.13;7.97;;;;;;;19.36;70.60;95790.88;1766338;81;21014;-65
2022/05/31 11:48:59;;;;;;;14.38;8.38;;;;;;;19.34;70.76;95788.73;1766097;81;21098;-65
2022/05/31 11:51:49;;;;;;;15.95;8.25;;;;;;;19.32;70.28;95784.41;1766431;81;20998;-65
2022/05/31 11:54:41;;;;;;;17.00;8.83;;;;;;;19.40;70.78;95786.22;1766246;81;21058;-65
2022/05/31 11:57:36;;;;;;;18.05;9.60;;;;;;;19.61;69.35;95778.93;1765341;81;21045;-65
2022/05/31 12:00:11;;;;;;;15.18;9.45;;;;;;;20.02;70.13;95780.81;1779381;80;21003;-65
2022/05/31 12:02:57;;;;;;;14.03;9.18;;;;;;;21.10;71.08;95767.75;1779997;81;20990;-66
2022/05/31 12:05:43;;;;;;;14.95;8.45;;;;;;;22.20;65.04;95761.72;1780251;81;21049;-66
2022/05/31 12:08:24;;;;;;;11.97;8.63;;;;;;;23.14;59.76;95755.77;1779984;80;20989;-66
2022/05/31 12:10:56;;;;;;;13.30;8.93;;;;;;;23.80;54.84;95757.23;1779796;81;21496;-66
2022/05/31 12:13:24;;;;;;;15.23;8.58;;;;;;;24.29;54.89;95750.66;1779993;80;20989;-66
2022/05/31 12:15:54;;;;;;;11.78;8.28;;;;;;;24.53;52.26;95749.91;1779860;80;21034;-66
2022/05/31 12:18:52;;;;;;;15.88;8.53;;;;;;;24.74;52.09;95748.84;1734372;81;20954;-66
2022/05/31 12:21:39;;;;;;;12.18;7.55;;;;;;;24.72;52.49;95743.57;1779380;81;21018;-66
2022/05/31 12:24:17;;;;;;;11.03;7.70;;;;;;;25.44;49.41;95737.40;1780052;81;21032;-66
2022/05/31 12:27:06;;;;;;;16.17;7.70;;;;;;;26.16;49.39;95738.66;1780262;80;21495;-66
2022/05/31 12:29:41;;;;;;;17.37;7.30;;;;;;;26.59;45.83;95743.91;1787169;80;21005;-66
2022/05/31 12:32:39;;;;;;;19.45;7.72;;;;;;;26.80;44.79;95747.57;1785833;80;20970;-66
2022/05/31 12:35:11;;;;;;;15.68;7.35;;;;;;;26.93;44.70;95741.52;1787005;80;20998;-66
2022/05/31 12:38:06;;;;;;;20.62;6.72;;;;;;;26.95;45.15;95742.77;1785744;80;21056;-66